Orbital elements of FENGYUN 1C DEB
| Launched | 9 May 1999 |
| Flight ended | – |
| Launch site | Taiyuan Space Center, PRC |
| Owner | People's Republic of China |
| NORAD ID | 30339 |
| Date fetched |
Epoch osculation |
Inc. [°] |
Ecc. | RA asc node [hr] |
Arg Peri. [°] |
Mean anom [°] |
Mean motion [rev/day] |
Abs. mag |
| Date fetched |
Epoch osculation |
Inc. [°] |
Ecc. | RA asc node [hr] |
Arg Peri. [°] |
Mean anom [°] |
Mean motion [rev/day] |
Abs. mag |
| 2026 May 05 17:57 | 2026 May 05 13:25:12 | 98.9743 | 0.00187 | 16.2442 | 22.3201 | 39.6163 | 14.40565 | – |
| 2026 May 04 17:57 | 2026 Apr 30 06:34:51 | 98.9734 | 0.00195 | 15.8748 | 39.5211 | 39.6163 | 14.40565 | – |
| 2026 May 03 17:57 | 2026 Apr 30 06:34:51 | 98.9734 | 0.00195 | 15.8748 | 39.5211 | 39.6163 | 14.40565 | – |
| 2026 May 02 17:57 | 2026 Apr 30 06:34:51 | 98.9734 | 0.00195 | 15.8748 | 39.5211 | 39.6163 | 14.40565 | – |
| 2026 May 01 17:56 | 2026 Apr 30 06:34:51 | 98.9734 | 0.00195 | 15.8748 | 39.5211 | 39.6163 | 14.40565 | – |
| 2026 Apr 30 17:56 | 2026 Apr 30 06:34:51 | 98.9734 | 0.00195 | 15.8748 | 39.5211 | 39.6163 | 14.40565 | – |
| 2026 Apr 29 17:57 | 2026 Apr 24 07:11:56 | 98.9728 | 0.00205 | 15.4573 | 58.0367 | 39.6163 | 14.40565 | – |
| 2026 Apr 28 17:56 | 2026 Apr 24 07:11:56 | 98.9728 | 0.00205 | 15.4573 | 58.0367 | 39.6163 | 14.40565 | – |
| 2026 Apr 27 17:58 | 2026 Apr 24 07:11:56 | 98.9728 | 0.00205 | 15.4573 | 58.0367 | 39.6163 | 14.40565 | – |
| 2026 Apr 26 17:58 | 2026 Apr 24 07:11:56 | 98.9728 | 0.00205 | 15.4573 | 58.0367 | 39.6163 | 14.40565 | – |
| 2026 Apr 25 17:58 | 2026 Apr 24 07:11:56 | 98.9728 | 0.00205 | 15.4573 | 58.0367 | 39.6163 | 14.40565 | – |
| 2026 Apr 24 17:59 | 2026 Apr 24 07:11:56 | 98.9728 | 0.00205 | 15.4573 | 58.0367 | 39.6163 | 14.40565 | – |
| 2026 Apr 23 17:57 | 2026 Apr 19 07:09:52 | 98.9729 | 0.00215 | 15.1078 | 72.8832 | 39.6163 | 14.40565 | – |
| 2026 Apr 22 17:57 | 2026 Apr 19 07:09:52 | 98.9729 | 0.00215 | 15.1078 | 72.8832 | 39.6163 | 14.40565 | – |
| 2026 Apr 21 17:57 | 2026 Apr 19 07:09:52 | 98.9729 | 0.00215 | 15.1078 | 72.8832 | 39.6163 | 14.40565 | – |
| 2026 Apr 20 17:57 | 2026 Apr 19 07:09:52 | 98.9729 | 0.00215 | 15.1078 | 72.8832 | 39.6163 | 14.40565 | – |
| 2026 Apr 19 17:58 | 2026 Apr 19 07:09:52 | 98.9729 | 0.00215 | 15.1078 | 72.8832 | 39.6163 | 14.40565 | – |
| 2026 Apr 18 17:56 | 2026 Apr 13 07:45:35 | 98.9714 | 0.00225 | 14.6903 | 89.8969 | 39.6163 | 14.40565 | – |
| 2026 Apr 16 17:57 | 2026 Apr 13 07:45:35 | 98.9714 | 0.00225 | 14.6903 | 89.8969 | 39.6163 | 14.40565 | – |
| 2026 Apr 14 17:57 | 2026 Apr 13 07:45:35 | 98.9714 | 0.00225 | 14.6903 | 89.8969 | 39.6163 | 14.40565 | – |
| 2026 Apr 13 17:57 | 2026 Apr 13 07:45:35 | 98.9714 | 0.00225 | 14.6903 | 89.8969 | 39.6163 | 14.40565 | – |
| 2026 Apr 12 17:57 | 2026 Apr 08 06:05:07 | 98.9712 | 0.00233 | 14.3362 | 103.8189 | 39.6163 | 14.40565 | – |
| 2026 Apr 11 17:57 | 2026 Apr 08 06:05:07 | 98.9712 | 0.00233 | 14.3362 | 103.8189 | 39.6163 | 14.40565 | – |
| 2026 Apr 10 17:58 | 2026 Apr 08 06:05:07 | 98.9712 | 0.00233 | 14.3362 | 103.8189 | 39.6163 | 14.40565 | – |
| 2026 Apr 09 18:01 | 2026 Apr 08 06:05:07 | 98.9712 | 0.00233 | 14.3362 | 103.8189 | 39.6163 | 14.40565 | – |
| 2026 Apr 08 17:57 | 2026 Apr 08 06:05:07 | 98.9712 | 0.00233 | 14.3362 | 103.8189 | 39.6163 | 14.40565 | – |